Time;durP1;ratioP1;P1;durP2;ratioP2;P2;SDS_P1;SDS_P2;PMS_P1;PMS_P2;Temp;Humidity;BMP_temperature;BMP_pressure;BME280_temperature;BME280_humidity;BME280_pressure;Samples;Min_cycle;Max_cycle;Signal;HPM_P1;HPM_P2
2021/06/18 00:00:12;;;;;;;12.63;8.82;;;23.80;94.20;;;;;;5056977;28;20484;-73
2021/06/18 00:02:40;;;;;;;11.13;9.35;;;23.80;94.30;;;;;;5060078;28;20052;-73
2021/06/18 00:05:08;;;;;;;12.30;9.20;;;23.80;94.40;;;;;;5055789;28;20095;-73
2021/06/18 00:07:36;;;;;;;12.43;9.85;;;23.70;94.40;;;;;;5038314;28;20476;-73
2021/06/18 00:10:06;;;;;;;12.23;9.02;;;23.70;94.50;;;;;;5060354;28;20045;-73
2021/06/18 00:12:32;;;;;;;11.50;8.95;;;23.70;94.60;;;;;;5041026;28;20048;-73
2021/06/18 00:15:00;;;;;;;11.23;9.38;;;23.70;94.70;;;;;;5053228;28;20098;-73
2021/06/18 00:17:27;;;;;;;11.93;9.32;;;23.60;94.70;;;;;;5031737;28;20126;-73
2021/06/18 00:19:54;;;;;;;13.63;9.50;;;23.50;94.80;;;;;;5040184;28;20075;-73
2021/06/18 00:26:08;;;;;;;11.30;8.80;;;23.50;95.10;;;;;;5054121;28;20075;-73
2021/06/18 00:28:35;;;;;;;10.40;9.13;;;23.50;95.00;;;;;;5056408;28;20048;-73
2021/06/18 00:31:02;;;;;;;12.02;10.05;;;23.50;95.10;;;;;;5050940;28;20088;-74
2021/06/18 00:33:30;;;;;;;12.02;9.60;;;23.50;95.20;;;;;;5056632;28;20127;-73
2021/06/18 00:35:57;;;;;;;13.50;9.77;;;23.50;95.30;;;;;;5054268;28;20048;-73
2021/06/18 00:38:24;;;;;;;13.73;9.80;;;23.50;95.40;;;;;;5046150;28;20041;-73
2021/06/18 00:40:51;;;;;;;12.52;9.48;;;23.50;95.50;;;;;;5053164;28;20526;-73
2021/06/18 00:43:18;;;;;;;13.32;10.52;;;23.50;95.50;;;;;;5058483;28;20080;-73
2021/06/18 00:45:44;;;;;;;13.80;10.55;;;23.50;95.60;;;;;;5048396;28;20139;-73
2021/06/18 00:48:12;;;;;;;13.00;9.70;;;23.50;95.60;;;;;;5039148;28;20049;-73
2021/06/18 00:50:41;;;;;;;13.20;9.48;;;23.50;95.80;;;;;;5053016;28;20624;-73
2021/06/18 00:53:13;;;;;;;13.73;10.15;;;23.50;95.80;;;;;;5049289;28;20413;-73
2021/06/18 00:55:40;;;;;;;12.13;9.50;;;23.50;95.90;;;;;;5056935;28;20122;-73
2021/06/18 00:58:08;;;;;;;11.53;8.97;;;23.40;96.00;;;;;;5058009;28;20193;-73
2021/06/18 01:00:34;;;;;;;;;;;23.40;96.10;;;;;;5060862;28;20297;-74
2021/06/18 01:03:01;;;;;;;11.77;8.48;;;23.40;96.20;;;;;;5059818;28;19920;-73
2021/06/18 01:05:30;;;;;;;13.85;9.88;;;23.30;96.00;;;;;;5079025;28;20463;-73
2021/06/18 01:07:59;;;;;;;;;;;23.30;96.20;;;;;;5058752;28;20060;-73
2021/06/18 01:11:00;;;;;;;13.27;9.63;;;23.30;96.40;;;;;;5055957;28;19921;-72
2021/06/18 01:13:37;;;;;;;13.93;9.77;;;23.20;96.10;;;;;;5051354;28;20077;-73
2021/06/18 01:16:23;;;;;;;;;;;23.20;96.30;;;;;;5059728;28;20052;-74
2021/06/18 01:18:56;;;;;;;11.57;8.93;;;23.20;96.50;;;;;;5061135;28;19983;-73
2021/06/18 01:21:31;;;;;;;12.65;9.65;;;23.20;96.20;;;;;;5045525;28;20072;-73
2021/06/18 01:24:19;;;;;;;13.02;9.82;;;23.20;96.40;;;;;;5050168;28;20045;-73
2021/06/18 01:27:00;;;;;;;12.32;9.73;;;23.20;96.50;;;;;;5060732;28;20052;-73
2021/06/18 01:29:31;;;;;;;12.18;10.48;;;23.20;96.60;;;;;;5040249;28;20072;-72
2021/06/18 01:32:00;;;;;;;14.80;10.65;;;23.20;96.70;;;;;;5056427;28;20048;-73
2021/06/18 01:34:31;;;;;;;13.10;10.95;;;23.20;96.80;;;;;;5040982;28;20083;-73
2021/06/18 01:37:07;;;;;;;12.77;10.82;;;23.10;96.90;;;;;;5055048;28;20077;-73
2021/06/18 01:39:34;;;;;;;15.05;11.00;;;23.10;97.00;;;;;;5043427;28;20100;-73
2021/06/18 01:42:05;;;;;;;12.80;10.45;;;23.10;97.10;;;;;;5052562;28;20076;-77
2021/06/18 01:44:34;;;;;;;12.80;10.52;;;23.10;97.20;;;;;;5042724;28;20386;-73
2021/06/18 01:47:03;;;;;;;14.27;11.50;;;23.10;97.30;;;;;;5040501;28;20087;-73
2021/06/18 01:49:33;;;;;;;12.95;10.15;;;23.10;97.40;;;;;;5062651;28;20049;-73
2021/06/18 01:52:02;;;;;;;13.77;10.85;;;23.20;97.40;;;;;;5049808;28;20049;-73
2021/06/18 01:54:30;;;;;;;14.98;11.10;;;23.20;97.50;;;;;;5052243;28;20485;-72
2021/06/18 01:57:00;;;;;;;14.35;10.43;;;23.20;97.50;;;;;;5047034;28;20102;-73
2021/06/18 01:59:32;;;;;;;13.80;9.88;;;23.20;97.60;;;;;;5053837;28;20466;-73
2021/06/18 02:02:00;;;;;;;13.90;10.55;;;23.20;97.60;;;;;;5058402;28;20099;-73
2021/06/18 02:04:27;;;;;;;14.27;10.68;;;23.20;97.70;;;;;;5062872;28;20087;-73
2021/06/18 02:07:05;;;;;;;12.63;10.07;;;23.20;97.70;;;;;;5052596;28;20432;-73
2021/06/18 02:09:35;;;;;;;14.13;10.60;;;23.20;97.80;;;;;;5066321;28;20048;-73
2021/06/18 02:12:02;;;;;;;13.38;10.77;;;23.20;97.80;;;;;;5058320;28;20076;-73
2021/06/18 02:14:31;;;;;;;14.02;10.73;;;23.20;97.90;;;;;;5068777;28;20064;-73
2021/06/18 02:17:01;;;;;;;13.15;10.75;;;23.20;97.90;;;;;;5056416;28;20077;-73
2021/06/18 02:19:29;;;;;;;14.20;10.15;;;23.10;97.90;;;;;;5059808;28;20474;-73
2021/06/18 02:21:57;;;;;;;11.63;10.20;;;23.20;98.00;;;;;;5056699;28;20076;-73
2021/06/18 02:24:26;;;;;;;;;;;23.20;98.00;;;;;;5063929;28;20080;-73
2021/06/18 02:26:54;;;;;;;11.90;9.13;;;23.10;98.00;;;;;;5057010;28;19921;-73
2021/06/18 02:29:21;;;;;;;;;;;23.10;97.90;;;;;;5065093;28;20143;-73
2021/06/18 02:31:49;;;;;;;11.23;8.60;;;23.10;98.20;;;;;;5053249;28;19966;-74
2021/06/18 02:34:16;;;;;;;12.55;9.57;;;23.10;97.90;;;;;;5072044;28;20053;-74
2021/06/18 02:36:43;;;;;;;12.20;9.27;;;23.00;98.00;;;;;;5059425;28;20092;-73
2021/06/18 02:39:12;;;;;;;11.20;9.27;;;23.00;98.00;;;;;;5046444;28;20041;-73
2021/06/18 02:41:40;;;;;;;12.07;9.93;;;23.00;98.10;;;;;;5054104;28;20157;-73
2021/06/18 02:44:07;;;;;;;;;;;23.00;98.20;;;;;;5060952;28;20082;-73
2021/06/18 02:46:41;;;;;;;11.60;9.20;;;23.00;98.30;;;;;;5064177;28;19971;-73
2021/06/18 02:49:13;;;;;;;13.35;9.95;;;23.00;98.10;;;;;;5057202;28;20373;-73
2021/06/18 02:51:51;;;;;;;12.80;10.45;;;23.00;98.20;;;;;;5058776;28;20122;-73
2021/06/18 02:54:34;;;;;;;12.63;10.18;;;22.90;98.20;;;;;;5041773;28;20081;-73
2021/06/18 02:57:20;;;;;;;12.77;10.68;;;22.90;98.30;;;;;;5063872;28;20137;-73
2021/06/18 02:59:58;;;;;;;12.70;11.30;;;22.90;98.40;;;;;;5055286;28;20069;-73
2021/06/18 03:02:32;;;;;;;14.07;10.95;;;22.90;98.50;;;;;;5059902;28;20069;-73
2021/06/18 03:05:01;;;;;;;14.38;11.65;;;22.80;98.50;;;;;;5067570;28;20049;-73
2021/06/18 03:07:29;;;;;;;18.45;11.60;;;22.80;98.60;;;;;;5052351;28;20460;-73
2021/06/18 03:10:00;;;;;;;13.80;11.10;;;22.80;98.70;;;;;;5036793;28;20466;-72
2021/06/18 03:12:28;;;;;;;14.52;11.57;;;22.70;98.90;;;;;;5055034;28;20130;-72
2021/06/18 03:15:01;;;;;;;14.85;12.18;;;22.70;99.00;;;;;;5052716;28;20128;-73
2021/06/18 03:17:29;;;;;;;13.10;11.18;;;22.60;99.10;;;;;;5038344;28;20487;-72
2021/06/18 03:19:59;;;;;;;16.15;14.45;;;22.60;99.20;;;;;;5057281;28;20476;-72
2021/06/18 03:22:30;;;;;;;18.20;15.13;;;22.50;99.40;;;;;;5052465;28;20107;-72
2021/06/18 03:24:58;;;;;;;15.80;12.68;;;22.40;99.90;;;;;;5058167;28;20056;-72
2021/06/18 03:27:25;;;;;;;;;;;22.20;99.90;;;;;;5055677;28;20079;-73
2021/06/18 03:29:53;;;;;;;18.43;11.67;;;22.10;99.90;;;;;;5080617;28;19959;-72
2021/06/18 03:32:22;;;;;;;14.15;11.48;;;22.10;99.90;;;;;;5053724;28;20131;-72
2021/06/18 03:34:50;;;;;;;14.57;11.35;;;22.10;99.90;;;;;;5063676;28;20049;-72
2021/06/18 03:37:18;;;;;;;14.57;11.30;;;22.10;99.90;;;;;;5050264;28;20080;-72
2021/06/18 03:39:46;;;;;;;13.60;11.82;;;22.00;99.90;;;;;;5054565;28;20072;-72
2021/06/18 03:42:14;;;;;;;11.95;10.75;;;21.90;99.90;;;;;;5051764;28;20072;-73
2021/06/18 03:44:41;;;;;;;;;;;21.90;99.90;;;;;;5059952;28;20071;-72
2021/06/18 03:47:12;;;;;;;13.00;11.13;;;21.90;99.90;;;;;;5054959;28;19971;-72
2021/06/18 03:49:43;;;;;;;14.93;11.82;;;21.80;99.90;;;;;;5062061;28;20380;-73
2021/06/18 03:52:10;;;;;;;15.63;12.43;;;21.80;99.90;;;;;;5039255;28;20075;-72
2021/06/18 03:54:38;;;;;;;16.02;13.15;;;21.80;99.90;;;;;;5056653;28;20069;-73
2021/06/18 03:57:06;;;;;;;15.93;13.75;;;21.80;99.90;;;;;;5058803;28;20075;-72
2021/06/18 03:59:33;;;;;;;18.40;13.55;;;21.80;99.90;;;;;;5061540;28;20071;-72
2021/06/18 04:02:01;;;;;;;16.42;13.10;;;21.70;99.90;;;;;;5046099;28;20100;-73
2021/06/18 04:04:31;;;;;;;16.23;14.52;;;21.70;99.90;;;;;;5032797;28;20068;-72
2021/06/18 04:07:00;;;;;;;17.83;14.57;;;21.60;99.90;;;;;;5038937;28;20467;-72
2021/06/18 04:09:27;;;;;;;19.58;14.77;;;21.60;99.90;;;;;;5066195;28;20052;-73
2021/06/18 04:11:56;;;;;;;18.17;14.60;;;21.70;99.90;;;;;;5054569;28;20473;-73
2021/06/18 04:14:28;;;;;;;16.48;13.98;;;21.70;99.90;;;;;;5043604;28;20442;-73
2021/06/18 04:16:54;;;;;;;17.05;13.80;;;21.80;99.90;;;;;;5042785;28;20077;-73
2021/06/18 04:19:22;;;;;;;18.83;14.50;;;21.80;99.90;;;;;;5061012;28;20069;-73
2021/06/18 04:21:51;;;;;;;16.90;14.13;;;21.90;99.90;;;;;;5061323;28;20464;-73
2021/06/18 04:24:18;;;;;;;17.73;14.65;;;21.90;99.90;;;;;;5061899;28;20165;-72
2021/06/18 04:26:45;;;;;;;15.63;14.00;;;21.90;99.90;;;;;;5049420;28;20492;-73
2021/06/18 04:29:12;;;;;;;17.70;15.30;;;21.80;99.90;;;;;;5060566;28;20080;-73
2021/06/18 04:31:39;;;;;;;16.02;14.20;;;21.80;99.90;;;;;;5042021;28;20045;-73
2021/06/18 04:34:07;;;;;;;16.27;14.55;;;21.80;99.90;;;;;;5066264;28;20044;-73
2021/06/18 04:36:36;;;;;;;18.00;14.43;;;21.90;99.90;;;;;;5053501;28;20481;-74
2021/06/18 04:39:04;;;;;;;17.17;14.20;;;21.90;99.90;;;;;;5038345;28;20068;-73
2021/06/18 04:41:32;;;;;;;16.92;14.82;;;21.90;99.90;;;;;;5047304;28;20068;-72
2021/06/18 04:43:59;;;;;;;18.17;15.30;;;21.90;99.90;;;;;;5039262;28;20084;-73
2021/06/18 04:46:35;;;;;;;18.48;14.50;;;21.80;99.90;;;;;;5031942;28;20346;-73
2021/06/18 04:49:02;;;;;;;17.80;15.20;;;21.70;99.90;;;;;;5041851;28;20060;-73
2021/06/18 04:51:29;;;;;;;16.75;14.40;;;21.70;99.90;;;;;;5038749;28;20127;-73
2021/06/18 04:53:56;;;;;;;16.53;14.23;;;21.70;99.90;;;;;;5028545;28;20111;-73
2021/06/18 04:56:32;;;;;;;17.83;15.68;;;21.70;99.90;;;;;;5025584;28;20130;-73
2021/06/18 04:58:59;;;;;;;18.50;15.77;;;21.70;99.90;;;;;;5062956;28;20080;-72
2021/06/18 05:01:26;;;;;;;18.13;15.60;;;21.70;99.90;;;;;;5044835;28;20054;-73
2021/06/18 05:03:54;;;;;;;20.20;16.08;;;21.70;99.90;;;;;;5056259;28;20079;-73
2021/06/18 05:06:21;;;;;;;18.50;16.45;;;21.70;99.90;;;;;;5045368;28;20049;-73
2021/06/18 05:08:47;;;;;;;19.48;16.85;;;21.70;99.90;;;;;;5052214;28;20138;-72
2021/06/18 05:11:14;;;;;;;18.13;16.27;;;21.70;99.90;;;;;;5056442;28;20488;-74
2021/06/18 05:13:41;;;;;;;21.52;16.88;;;21.70;99.90;;;;;;5039500;28;20071;-72
2021/06/18 05:16:08;;;;;;;20.25;16.90;;;21.70;99.90;;;;;;5045378;28;20475;-72
2021/06/18 05:18:34;;;;;;;18.98;16.80;;;21.70;99.90;;;;;;5056845;28;20372;-72
2021/06/18 05:21:01;;;;;;;18.38;16.38;;;21.80;99.90;;;;;;5044447;28;20131;-72
2021/06/18 05:23:28;;;;;;;20.48;17.90;;;21.70;99.90;;;;;;5056243;28;20049;-72
2021/06/18 05:25:55;;;;;;;21.05;18.77;;;21.70;99.90;;;;;;5053447;28;20107;-72
2021/06/18 05:28:21;;;;;;;20.98;18.35;;;21.70;99.90;;;;;;5035021;28;20077;-72
2021/06/18 05:30:48;;;;;;;20.50;18.23;;;21.70;99.90;;;;;;5036204;28;20052;-72
2021/06/18 05:33:15;;;;;;;21.00;18.25;;;21.70;99.90;;;;;;5029969;28;20048;-72
2021/06/18 05:35:44;;;;;;;21.88;19.58;;;21.60;99.90;;;;;;5055441;28;20044;-72
2021/06/18 05:38:12;;;;;;;22.85;19.55;;;21.60;99.90;;;;;;5041993;28;20073;-72
2021/06/18 05:40:42;;;;;;;25.25;20.02;;;21.60;99.90;;;;;;5045659;28;20045;-72
2021/06/18 05:43:12;;;;;;;21.38;19.10;;;21.60;99.90;;;;;;5050302;28;20045;-72
2021/06/18 05:45:39;;;;;;;22.63;19.50;;;21.60;99.90;;;;;;5059301;28;20110;-72
2021/06/18 05:48:07;;;;;;;22.67;20.02;;;21.70;99.90;;;;;;5039684;28;20057;-72
2021/06/18 05:50:34;;;;;;;22.10;19.83;;;21.70;99.90;;;;;;5028061;28;20072;-72
2021/06/18 05:53:31;;;;;;;20.95;18.83;;;21.80;99.90;;;;;;5025799;28;20088;-72
2021/06/18 05:55:59;;;;;;;23.35;20.45;;;21.80;99.90;;;;;;5028327;28;20092;-72
2021/06/18 05:58:26;;;;;;;;;;;21.80;99.90;;;;;;5028287;28;20104;-72
2021/06/18 06:00:53;;;;;;;20.70;18.50;;;21.70;99.90;;;;;;5027691;28;19964;-72
2021/06/18 06:03:20;;;;;;;22.45;20.05;;;21.70;99.90;;;;;;5025755;28;20401;-73
2021/06/18 06:05:47;;;;;;;21.50;19.23;;;21.70;99.90;;;;;;5027147;28;20136;-72
2021/06/18 06:08:14;;;;;;;23.35;20.90;;;21.70;99.90;;;;;;5027411;28;20135;-72
2021/06/18 06:10:48;;;;;;;23.38;20.80;;;21.70;99.90;;;;;;5027513;28;20061;-72
2021/06/18 06:13:16;;;;;;;24.20;21.48;;;21.70;99.90;;;;;;5026429;28;20125;-73
2021/06/18 06:15:43;;;;;;;24.02;21.33;;;21.70;99.90;;;;;;5029503;28;20056;-72
2021/06/18 06:18:10;;;;;;;24.45;21.88;;;21.70;99.90;;;;;;5025725;28;20489;-72
2021/06/18 06:20:40;;;;;;;23.88;21.48;;;21.70;99.90;;;;;;5027122;28;20045;-72
2021/06/18 06:23:08;;;;;;;23.90;21.05;;;21.70;99.90;;;;;;5029292;28;20067;-72
2021/06/18 06:25:35;;;;;;;25.63;21.45;;;21.70;99.90;;;;;;5027966;28;20406;-72
2021/06/18 06:28:02;;;;;;;22.98;20.48;;;21.70;99.90;;;;;;5028204;28;20507;-73
2021/06/18 06:30:29;;;;;;;22.38;20.00;;;21.70;99.90;;;;;;5030654;28;20123;-72
2021/06/18 06:32:56;;;;;;;22.52;20.23;;;21.70;99.90;;;;;;5012963;28;20122;-72
2021/06/18 06:35:24;;;;;;;22.42;19.60;;;21.70;99.90;;;;;;5031793;28;20069;-73
2021/06/18 06:37:52;;;;;;;22.38;19.98;;;21.70;99.90;;;;;;5029756;28;20073;-72
2021/06/18 06:40:20;;;;;;;21.10;18.73;;;21.80;99.90;;;;;;5031502;28;20519;-73
2021/06/18 06:42:47;;;;;;;22.25;19.00;;;21.80;99.90;;;;;;5032351;28;20075;-72
2021/06/18 06:45:26;;;;;;;19.20;17.17;;;21.80;99.90;;;;;;5016588;28;20080;-73
2021/06/18 06:47:53;;;;;;;21.65;17.98;;;21.90;99.90;;;;;;5029889;28;20139;-72
2021/06/18 06:50:20;;;;;;;20.53;18.43;;;21.90;99.90;;;;;;5030221;28;20072;-72
2021/06/18 06:52:47;;;;;;;19.17;17.17;;;21.90;99.90;;;;;;5030267;28;20135;-72
2021/06/18 06:55:14;;;;;;;21.63;18.33;;;21.90;99.90;;;;;;5035407;28;19920;-72
2021/06/18 06:57:42;;;;;;;20.98;18.52;;;21.90;99.90;;;;;;5030102;28;20112;-72
2021/06/18 07:00:09;;;;;;;;;;;21.90;99.90;;;;;;5030413;28;20068;-72
2021/06/18 07:02:36;;;;;;;17.92;16.02;;;21.90;99.90;;;;;;5030208;28;19946;-72
2021/06/18 07:05:03;;;;;;;20.58;18.42;;;21.90;99.90;;;;;;5045049;28;20069;-72
2021/06/18 07:07:30;;;;;;;18.93;16.97;;;21.80;99.90;;;;;;5031042;28;20144;-72
2021/06/18 07:09:57;;;;;;;21.17;17.93;;;21.80;99.90;;;;;;5013725;28;20044;-72
2021/06/18 07:12:24;;;;;;;19.40;17.33;;;21.80;99.90;;;;;;5029331;28;20133;-72
2021/06/18 07:14:50;;;;;;;19.65;17.33;;;21.80;99.90;;;;;;5030079;28;20128;-72
2021/06/18 07:17:17;;;;;;;20.75;18.10;;;21.80;99.90;;;;;;5029055;28;20142;-72
2021/06/18 07:19:44;;;;;;;19.38;17.38;;;21.90;99.90;;;;;;5027869;28;20160;-72
2021/06/18 07:22:11;;;;;;;19.02;16.95;;;21.90;99.90;;;;;;5030028;28;20136;-72
2021/06/18 07:24:37;;;;;;;18.58;16.58;;;21.90;99.90;;;;;;5030413;28;20076;-72
2021/06/18 07:27:04;;;;;;;19.42;17.33;;;21.90;99.90;;;;;;5028495;28;20076;-72
2021/06/18 07:29:31;;;;;;;18.20;16.20;;;21.90;99.90;;;;;;5032946;28;20113;-72
2021/06/18 07:31:58;;;;;;;17.30;15.50;;;21.90;99.90;;;;;;5028518;28;20057;-72
2021/06/18 07:34:25;;;;;;;17.50;14.95;;;21.90;99.90;;;;;;5030048;28;20052;-71
2021/06/18 07:36:52;;;;;;;16.40;14.13;;;21.90;99.90;;;;;;5028875;28;20549;-72
2021/06/18 07:39:19;;;;;;;16.80;15.02;;;21.90;99.90;;;;;;5028111;28;20069;-72
2021/06/18 07:41:46;;;;;;;17.27;15.27;;;21.90;99.90;;;;;;5026941;28;20477;-72
2021/06/18 07:44:13;;;;;;;15.60;13.98;;;21.90;99.90;;;;;;5044546;28;20469;-72
2021/06/18 07:46:40;;;;;;;16.13;14.43;;;21.90;99.90;;;;;;5026726;28;20460;-71
2021/06/18 07:49:07;;;;;;;15.75;14.05;;;21.90;99.90;;;;;;5028143;28;20049;-71
2021/06/18 07:51:37;;;;;;;14.82;13.23;;;21.90;99.90;;;;;;5012104;28;20372;-72
2021/06/18 07:54:05;;;;;;;15.50;13.80;;;21.90;99.90;;;;;;5031362;28;20077;-71
2021/06/18 07:56:40;;;;;;;17.20;14.63;;;21.90;99.90;;;;;;5009008;28;20066;-72
2021/06/18 07:59:06;;;;;;;15.98;14.27;;;21.90;99.90;;;;;;5027527;28;20202;-72
2021/06/18 08:01:33;;;;;;;15.75;14.15;;;21.90;99.90;;;;;;5028524;28;20076;-71
2021/06/18 08:04:01;;;;;;;17.80;14.02;;;21.90;99.90;;;;;;5011437;28;20059;-71
2021/06/18 08:06:28;;;;;;;16.95;13.80;;;22.00;99.90;;;;;;5029912;28;20155;-72
2021/06/18 08:08:55;;;;;;;15.10;13.40;;;21.90;99.90;;;;;;5028724;28;20466;-72
2021/06/18 08:11:21;;;;;;;16.85;13.38;;;21.90;99.90;;;;;;5031472;28;20499;-72
2021/06/18 08:13:48;;;;;;;13.68;12.30;;;21.90;99.90;;;;;;5028837;28;20073;-71
2021/06/18 08:16:15;;;;;;;14.68;12.68;;;21.90;99.90;;;;;;5026121;28;20069;-71
2021/06/18 08:18:42;;;;;;;14.55;13.05;;;22.00;99.90;;;;;;5009675;28;20407;-71
2021/06/18 08:21:09;;;;;;;16.23;13.35;;;22.00;99.90;;;;;;5026717;28;20075;-72
2021/06/18 08:23:38;;;;;;;14.93;13.30;;;22.00;99.90;;;;;;5028208;28;20048;-71
2021/06/18 08:26:04;;;;;;;15.93;13.35;;;22.00;99.90;;;;;;5040798;28;20049;-72
2021/06/18 08:28:32;;;;;;;15.48;13.73;;;22.00;99.90;;;;;;5028757;28;20136;-72
2021/06/18 08:31:00;;;;;;;;;;;22.00;99.90;;;;;;5028155;28;20053;-72
2021/06/18 08:33:26;;;;;;;15.48;12.95;;;22.00;99.90;;;;;;5027697;28;20544;-72
2021/06/18 08:35:53;;;;;;;16.15;13.43;;;22.00;99.90;;;;;;5020494;28;20089;-72
2021/06/18 08:38:20;;;;;;;15.50;13.90;;;22.00;99.90;;;;;;5008689;28;20056;-72
2021/06/18 08:40:47;;;;;;;15.13;13.60;;;22.00;99.90;;;;;;5029944;28;20050;-72
2021/06/18 08:43:14;;;;;;;17.88;15.13;;;22.10;99.90;;;;;;5026348;28;20072;-72
2021/06/18 08:45:40;;;;;;;15.18;13.60;;;22.10;99.90;;;;;;5030278;28;20422;-72
2021/06/18 08:48:07;;;;;;;16.30;14.63;;;22.10;99.90;;;;;;5025356;28;20156;-72
2021/06/18 08:50:34;;;;;;;15.00;13.48;;;22.20;99.90;;;;;;5026718;28;20119;-72
2021/06/18 08:53:03;;;;;;;15.27;13.27;;;22.20;99.90;;;;;;5028673;28;20111;-72
2021/06/18 08:55:31;;;;;;;14.73;13.20;;;22.30;99.90;;;;;;5029475;28;20344;-72
2021/06/18 08:58:03;;;;;;;15.15;13.55;;;22.40;99.90;;;;;;5009091;28;20079;-72
2021/06/18 09:00:31;;;;;;;15.93;13.32;;;22.50;99.90;;;;;;5029933;28;20493;-72
2021/06/18 09:02:58;;;;;;;15.35;13.57;;;22.70;99.90;;;;;;5026907;28;20144;-72
2021/06/18 09:05:25;;;;;;;16.02;14.43;;;22.90;99.90;;;;;;5028023;28;20153;-72
2021/06/18 09:08:03;;;;;;;15.57;13.07;;;23.00;99.90;;;;;;5026636;28;20080;-72
2021/06/18 09:10:41;;;;;;;15.35;13.57;;;23.10;99.90;;;;;;5028348;28;20062;-73
2021/06/18 09:13:15;;;;;;;;;;;23.20;99.90;;;;;;5011216;28;20069;-73
2021/06/18 09:15:45;;;;;;;12.02;10.65;;;23.30;99.90;;;;;;5026479;28;19921;-72
2021/06/18 09:18:22;;;;;;;12.90;11.60;;;23.40;99.90;;;;;;5024049;28;20069;-73
2021/06/18 09:20:50;;;;;;;;;;;23.50;99.90;;;;;;5029104;28;20052;-72
2021/06/18 09:23:39;;;;;;;12.02;9.50;;;23.60;99.90;;;;;;5028405;28;19921;-72
2021/06/18 09:26:38;;;;;;;11.25;9.90;;;23.70;99.90;;;;;;5002108;28;20057;-72
2021/06/18 09:29:22;;;;;;;10.98;9.77;;;23.90;99.90;;;;;;5028694;28;20132;-72
2021/06/18 09:31:56;;;;;;;10.60;9.25;;;24.00;99.90;;;;;;5009335;28;20061;-72
2021/06/18 09:34:39;;;;;;;10.35;9.05;;;24.10;99.90;;;;;;5027360;28;20064;-72
2021/06/18 09:37:22;;;;;;;10.23;8.27;;;24.10;99.90;;;;;;5024089;28;20037;-72
2021/06/18 09:40:00;;;;;;;10.23;8.00;;;24.20;99.90;;;;;;5028566;28;20052;-72
2021/06/18 09:42:44;;;;;;;9.82;7.70;;;24.30;99.90;;;;;;5026024;28;20069;-72
2021/06/18 09:45:14;;;;;;;8.85;7.47;;;24.40;99.90;;;;;;5027565;28;20496;-72
2021/06/18 09:47:41;;;;;;;8.90;7.47;;;24.50;99.90;;;;;;5027198;28;20089;-72
2021/06/18 09:50:14;;;;;;;8.73;7.28;;;24.50;99.90;;;;;;5030220;28;20128;-72
2021/06/18 09:52:42;;;;;;;8.70;6.95;;;24.60;99.90;;;;;;5028730;28;20069;-71
2021/06/18 09:55:18;;;;;;;9.68;7.95;;;24.60;99.90;;;;;;5026959;28;20081;-72
2021/06/18 09:57:45;;;;;;;9.75;7.38;;;24.70;99.90;;;;;;5027078;28;20076;-72
2021/06/18 10:00:16;;;;;;;9.15;7.43;;;24.80;99.90;;;;;;5041598;28;20124;-72
2021/06/18 10:02:48;;;;;;;12.38;8.32;;;24.80;99.90;;;;;;5029280;28;20374;-72
2021/06/18 10:05:26;;;;;;;10.77;9.07;;;24.90;99.90;;;;;;5032750;28;20139;-72
2021/06/18 10:07:55;;;;;;;11.25;10.07;;;24.90;99.90;;;;;;5031091;28;20073;-72
2021/06/18 10:10:24;;;;;;;14.85;11.50;;;25.00;99.90;;;;;;5035217;28;20049;-72
2021/06/18 10:12:54;;;;;;;16.63;13.02;;;25.10;99.90;;;;;;5033864;28;20144;-72
2021/06/18 10:15:23;;;;;;;17.50;12.82;;;25.10;99.90;;;;;;5032183;28;20160;-72
2021/06/18 10:17:53;;;;;;;16.90;14.05;;;25.10;99.90;;;;;;5029275;28;20077;-72
2021/06/18 10:20:23;;;;;;;15.25;13.20;;;25.20;99.90;;;;;;5031683;28;20520;-72
2021/06/18 10:23:01;;;;;;;17.85;15.20;;;25.20;99.90;;;;;;5030737;28;20081;-72
2021/06/18 10:25:33;;;;;;;18.33;16.40;;;25.20;99.90;;;;;;5030553;28;20578;-72
2021/06/18 10:28:17;;;;;;;18.40;16.42;;;25.30;99.90;;;;;;5031927;28;20053;-72
2021/06/18 10:30:45;;;;;;;18.02;16.13;;;25.30;99.90;;;;;;5030203;28;20104;-72
2021/06/18 10:33:27;;;;;;;20.35;15.65;;;25.30;99.90;;;;;;5030043;28;20141;-72
2021/06/18 10:36:05;;;;;;;17.48;15.15;;;25.50;99.90;;;;;;5046086;28;20075;-72
2021/06/18 10:38:36;;;;;;;19.05;15.82;;;25.60;99.90;;;;;;5028968;28;20483;-72
2021/06/18 10:41:23;;;;;;;22.27;19.38;;;25.70;99.90;;;;;;5031341;28;20080;-72
2021/06/18 10:43:57;;;;;;;25.10;22.48;;;25.80;99.90;;;;;;5030321;28;20095;-72
2021/06/18 10:46:32;;;;;;;20.27;18.20;;;25.80;99.90;;;;;;5029398;28;20045;-72
2021/06/18 10:49:15;;;;;;;26.08;23.38;;;25.80;99.90;;;;;;5031204;28;20054;-72
2021/06/18 10:51:50;;;;;;;22.45;19.67;;;25.80;99.90;;;;;;5028662;28;20144;-72
2021/06/18 10:54:44;;;;;;;20.90;18.80;;;25.90;99.90;;;;;;5011912;28;20054;-73
2021/06/18 10:57:19;;;;;;;22.00;19.70;;;26.00;99.90;;;;;;5023912;28;20515;-72
2021/06/18 10:59:51;;;;;;;24.60;21.50;;;26.00;99.90;;;;;;5030188;28;20084;-72
2021/06/18 11:02:25;;;;;;;21.92;19.70;;;26.10;99.90;;;;;;5045040;28;20087;-72
2021/06/18 11:04:56;;;;;;;23.95;21.45;;;26.20;99.90;;;;;;5032285;28;20087;-72
2021/06/18 11:07:25;;;;;;;24.98;22.35;;;26.20;99.90;;;;;;5031207;28;20485;-72
2021/06/18 11:10:03;;;;;;;24.33;21.75;;;26.20;99.90;;;;;;5029938;28;20675;-72
2021/06/18 11:12:30;;;;;;;26.60;20.60;;;26.30;99.90;;;;;;5043746;28;20077;-72
2021/06/18 11:14:58;;;;;;;21.63;19.35;;;26.30;99.90;;;;;;5030570;28;20046;-72
2021/06/18 11:17:45;;;;;;;21.75;19.55;;;26.40;99.90;;;;;;5028339;28;20069;-72
2021/06/18 11:20:13;;;;;;;24.83;22.42;;;26.50;99.90;;;;;;5031484;28;20053;-72
2021/06/18 11:22:47;;;;;;;24.98;22.33;;;26.50;99.90;;;;;;5029052;28;20049;-72
2021/06/18 11:25:36;;;;;;;22.40;20.08;;;26.60;99.90;;;;;;5031505;28;20049;-72
2021/06/18 11:28:25;;;;;;;24.60;22.00;;;26.60;99.90;;;;;;5031164;28;20050;-72
2021/06/18 11:31:03;;;;;;;24.55;21.60;;;26.70;99.90;;;;;;5031654;28;20061;-72
2021/06/18 11:33:36;;;;;;;24.80;22.38;;;26.70;99.90;;;;;;5010519;28;20171;-73
2021/06/18 11:36:04;;;;;;;26.02;23.45;;;26.80;99.90;;;;;;5029557;28;20050;-72
2021/06/18 11:38:31;;;;;;;29.13;26.23;;;26.80;99.90;;;;;;5032121;28;20129;-72
2021/06/18 11:41:00;;;;;;;22.35;20.00;;;26.80;99.90;;;;;;5029518;28;20071;-72
2021/06/18 11:43:29;;;;;;;23.55;21.27;;;26.90;99.90;;;;;;5030053;28;20453;-72
2021/06/18 11:45:57;;;;;;;20.70;18.60;;;26.90;99.90;;;;;;5031368;28;20088;-72
2021/06/18 11:48:24;;;;;;;23.05;20.65;;;27.00;99.90;;;;;;5029546;28;20141;-72
2021/06/18 11:50:52;;;;;;;22.63;20.23;;;27.10;99.90;;;;;;5029605;28;20064;-72
2021/06/18 11:53:20;;;;;;;24.10;20.30;;;27.10;99.90;;;;;;5029288;28;20103;-72
2021/06/18 11:56:03;;;;;;;23.30;20.88;;;27.20;99.90;;;;;;5026053;28;20477;-72
2021/06/18 11:58:42;;;;;;;24.45;21.95;;;27.30;99.90;;;;;;5029667;28;20430;-71
2021/06/18 12:01:18;;;;;;;21.52;19.02;;;27.30;99.90;;;;;;5029296;28;20139;-72
2021/06/18 12:03:47;;;;;;;19.35;17.25;;;27.30;99.90;;;;;;5027678;28;20045;-72
2021/06/18 12:06:51;;;;;;;19.52;17.35;;;27.40;99.90;;;;;;5030423;28;20465;-72
2021/06/18 12:09:22;;;;;;;19.45;16.15;;;27.40;99.90;;;;;;5007973;28;20492;-73
2021/06/18 12:11:57;;;;;;;19.13;17.15;;;27.40;99.90;;;;;;5032879;28;20057;-72
2021/06/18 12:14:24;;;;;;;18.63;16.63;;;27.50;99.90;;;;;;5047939;28;20049;-72
2021/06/18 12:16:52;;;;;;;21.47;18.77;;;27.50;99.90;;;;;;5025800;28;20197;-72
2021/06/18 12:19:24;;;;;;;17.98;16.08;;;27.60;99.90;;;;;;5031043;28;20041;-72
2021/06/18 12:22:09;;;;;;;20.73;18.17;;;27.60;99.90;;;;;;5028669;28;20143;-72
2021/06/18 12:24:51;;;;;;;20.52;18.40;;;27.60;99.90;;;;;;5029153;28;20465;-72
2021/06/18 12:27:27;;;;;;;19.88;17.30;;;27.70;99.90;;;;;;5027468;28;20049;-72
2021/06/18 12:29:57;;;;;;;23.60;17.95;;;27.70;99.90;;;;;;5030837;28;20425;-72
2021/06/18 12:32:29;;;;;;;19.70;17.13;;;27.80;99.90;;;;;;5028154;28;20069;-72
2021/06/18 12:34:57;;;;;;;21.58;19.13;;;27.80;99.90;;;;;;5028951;28;20132;-72
2021/06/18 12:37:27;;;;;;;23.33;20.42;;;27.80;99.90;;;;;;5007214;28;20077;-72
2021/06/18 12:39:56;;;;;;;21.63;19.42;;;27.90;99.90;;;;;;5027890;28;20124;-72
2021/06/18 12:42:37;;;;;;;19.55;17.45;;;27.90;99.90;;;;;;5029869;28;20329;-73
2021/06/18 12:45:13;;;;;;;18.85;17.05;;;28.00;99.90;;;;;;5028668;28;20314;-73
2021/06/18 12:47:43;;;;;;;18.63;15.77;;;28.00;99.90;;;;;;5022700;28;20155;-72
2021/06/18 12:50:33;;;;;;;20.50;18.17;;;28.10;99.90;;;;;;5026187;28;20041;-72
2021/06/18 12:53:04;;;;;;;21.67;19.48;;;28.10;99.90;;;;;;5042461;28;20049;-72